sensor_id;sensor_type;location;lat;lon;timestamp;pressure;altitude;pressure_sealevel;temperature;humidity
30516;BME280;17297;54.022;10.760;2023-10-31T00:02:09;99452.69;;;14.63;71.77
30516;BME280;17297;54.022;10.760;2023-10-31T00:04:35;99440.22;;;14.62;71.88
30516;BME280;17297;54.022;10.760;2023-10-31T00:07:00;99439.66;;;14.60;71.84
30516;BME280;17297;54.022;10.760;2023-10-31T00:09:25;99445.88;;;14.60;72.19
30516;BME280;17297;54.022;10.760;2023-10-31T00:11:51;99431.81;;;14.58;72.00
30516;BME280;17297;54.022;10.760;2023-10-31T00:14:16;99434.50;;;14.58;72.05
30516;BME280;17297;54.022;10.760;2023-10-31T00:16:41;99426.38;;;14.58;72.22
30516;BME280;17297;54.022;10.760;2023-10-31T00:19:07;99424.72;;;14.57;72.28
30516;BME280;17297;54.022;10.760;2023-10-31T00:21:32;99420.41;;;14.56;72.41
30516;BME280;17297;54.022;10.760;2023-10-31T00:23:57;99422.03;;;14.57;72.32
30516;BME280;17297;54.022;10.760;2023-10-31T00:26:23;99408.75;;;14.55;72.46
30516;BME280;17297;54.022;10.760;2023-10-31T00:28:52;99411.47;;;14.55;72.62
30516;BME280;17297;54.022;10.760;2023-10-31T00:31:18;99409.00;;;14.54;72.73
30516;BME280;17297;54.022;10.760;2023-10-31T00:33:44;99399.25;;;14.53;72.72
30516;BME280;17297;54.022;10.760;2023-10-31T00:36:09;99397.34;;;14.53;72.79
30516;BME280;17297;54.022;10.760;2023-10-31T00:38:35;99403.03;;;14.52;72.96
30516;BME280;17297;54.022;10.760;2023-10-31T00:41:00;99402.19;;;14.51;73.07
30516;BME280;17297;54.022;10.760;2023-10-31T00:43:25;99398.69;;;14.51;73.06
30516;BME280;17297;54.022;10.760;2023-10-31T00:45:51;99394.31;;;14.50;73.02
30516;BME280;17297;54.022;10.760;2023-10-31T00:48:16;99391.84;;;14.48;73.20
30516;BME280;17297;54.022;10.760;2023-10-31T00:50:41;99387.50;;;14.47;73.25
30516;BME280;17297;54.022;10.760;2023-10-31T00:53:07;99389.41;;;14.47;73.46
30516;BME280;17297;54.022;10.760;2023-10-31T00:55:33;99376.09;;;14.45;73.46
30516;BME280;17297;54.022;10.760;2023-10-31T00:57:59;99371.78;;;14.44;73.57
30516;BME280;17297;54.022;10.760;2023-10-31T01:00:24;99374.75;;;14.43;73.67
30516;BME280;17297;54.022;10.760;2023-10-31T01:02:49;99370.38;;;14.42;73.80
30516;BME280;17297;54.022;10.760;2023-10-31T01:05:15;99360.66;;;14.41;73.90
30516;BME280;17297;54.022;10.760;2023-10-31T01:07:40;99355.50;;;14.39;74.03
30516;BME280;17297;54.022;10.760;2023-10-31T01:10:06;99352.22;;;14.37;74.11
30516;BME280;17297;54.022;10.760;2023-10-31T01:12:31;99344.34;;;14.36;74.17
30516;BME280;17297;54.022;10.760;2023-10-31T01:14:57;99351.66;;;14.35;74.26
30516;BME280;17297;54.022;10.760;2023-10-31T01:17:23;99339.19;;;14.34;74.25
30516;BME280;17297;54.022;10.760;2023-10-31T01:19:49;99331.91;;;14.35;74.41
30516;BME280;17297;54.022;10.760;2023-10-31T01:22:14;99328.38;;;14.34;74.46
30516;BME280;17297;54.022;10.760;2023-10-31T01:24:39;99331.09;;;14.34;74.33
30516;BME280;17297;54.022;10.760;2023-10-31T01:27:05;99330.00;;;14.35;74.53
30516;BME280;17297;54.022;10.760;2023-10-31T01:29:30;99324.88;;;14.33;74.50
30516;BME280;17297;54.022;10.760;2023-10-31T01:31:56;99314.03;;;14.33;74.60
30516;BME280;17297;54.022;10.760;2023-10-31T01:34:21;99319.44;;;14.33;74.55
30516;BME280;17297;54.022;10.760;2023-10-31T01:36:47;99312.38;;;14.32;74.54
30516;BME280;17297;54.022;10.760;2023-10-31T01:39:12;99314.28;;;14.32;74.56
30516;BME280;17297;54.022;10.760;2023-10-31T01:41:41;99308.88;;;14.32;74.66
30516;BME280;17297;54.022;10.760;2023-10-31T01:44:06;99305.34;;;14.31;74.55
30516;BME280;17297;54.022;10.760;2023-10-31T01:46:32;99310.75;;;14.31;74.53
30516;BME280;17297;54.022;10.760;2023-10-31T01:48:57;99303.72;;;14.30;74.49
30516;BME280;17297;54.022;10.760;2023-10-31T01:51:22;99300.44;;;14.28;74.57
30516;BME280;17297;54.022;10.760;2023-10-31T01:53:48;99303.16;;;14.28;74.57
30516;BME280;17297;54.022;10.760;2023-10-31T01:56:14;99293.13;;;14.29;74.65
30516;BME280;17297;54.022;10.760;2023-10-31T01:58:39;99286.09;;;14.28;74.44
30516;BME280;17297;54.022;10.760;2023-10-31T02:01:07;99289.88;;;14.27;74.54
30516;BME280;17297;54.022;10.760;2023-10-31T02:03:32;99284.22;;;14.28;74.41
30516;BME280;17297;54.022;10.760;2023-10-31T02:05:58;99284.22;;;14.28;74.49
30516;BME280;17297;54.022;10.760;2023-10-31T02:08:25;99281.50;;;14.28;74.40
30516;BME280;17297;54.022;10.760;2023-10-31T02:10:50;99276.91;;;14.29;74.27
30516;BME280;17297;54.022;10.760;2023-10-31T02:13:17;99269.88;;;14.28;74.18
30516;BME280;17297;54.022;10.760;2023-10-31T02:15:44;99269.59;;;14.29;74.29
30516;BME280;17297;54.022;10.760;2023-10-31T02:18:11;99266.38;;;14.27;74.13
30516;BME280;17297;54.022;10.760;2023-10-31T02:20:37;99267.19;;;14.28;74.14
30516;BME280;17297;54.022;10.760;2023-10-31T02:23:03;99257.66;;;14.25;74.00
30516;BME280;17297;54.022;10.760;2023-10-31T02:25:29;99261.47;;;14.24;74.07
30516;BME280;17297;54.022;10.760;2023-10-31T02:27:54;99256.06;;;14.24;74.12
30516;BME280;17297;54.022;10.760;2023-10-31T02:30:20;99251.69;;;14.23;73.98
30516;BME280;17297;54.022;10.760;2023-10-31T02:32:45;99245.47;;;14.23;74.13
30516;BME280;17297;54.022;10.760;2023-10-31T02:35:11;99241.94;;;14.22;74.14
30516;BME280;17297;54.022;10.760;2023-10-31T02:37:37;99239.25;;;14.22;74.04
30516;BME280;17297;54.022;10.760;2023-10-31T02:40:03;99241.13;;;14.22;74.17
30516;BME280;17297;54.022;10.760;2023-10-31T02:42:28;99246.53;;;14.22;74.13
30516;BME280;17297;54.022;10.760;2023-10-31T02:44:54;99243.03;;;14.21;74.06
30516;BME280;17297;54.022;10.760;2023-10-31T02:47:19;99237.34;;;14.23;74.15
30516;BME280;17297;54.022;10.760;2023-10-31T02:49:45;99231.94;;;14.23;74.04
30516;BME280;17297;54.022;10.760;2023-10-31T02:52:11;99224.66;;;14.23;74.14
30516;BME280;17297;54.022;10.760;2023-10-31T02:54:37;99227.13;;;14.25;74.11
30516;BME280;17297;54.022;10.760;2023-10-31T02:57:03;99216.28;;;14.25;74.12
30516;BME280;17297;54.022;10.760;2023-10-31T02:59:28;99222.50;;;14.25;74.04
30516;BME280;17297;54.022;10.760;2023-10-31T03:01:56;99219.56;;;14.27;74.18
30516;BME280;17297;54.022;10.760;2023-10-31T03:04:22;99210.63;;;14.26;74.18
30516;BME280;17297;54.022;10.760;2023-10-31T03:06:47;99214.69;;;14.29;74.07
30516;BME280;17297;54.022;10.760;2023-10-31T03:09:12;99204.47;;;14.31;74.18
30516;BME280;17297;54.022;10.760;2023-10-31T03:11:38;99206.34;;;14.30;74.07
30516;BME280;17297;54.022;10.760;2023-10-31T03:14:03;99199.84;;;14.31;74.15
30516;BME280;17297;54.022;10.760;2023-10-31T03:16:28;99192.56;;;14.32;74.08
30516;BME280;17297;54.022;10.760;2023-10-31T03:18:54;99186.34;;;14.31;74.24
30516;BME280;17297;54.022;10.760;2023-10-31T03:21:19;99183.38;;;14.33;74.16
30516;BME280;17297;54.022;10.760;2023-10-31T03:23:48;99181.50;;;14.33;74.16
30516;BME280;17297;54.022;10.760;2023-10-31T03:26:16;99177.72;;;14.35;74.23
30516;BME280;17297;54.022;10.760;2023-10-31T03:28:42;99181.00;;;14.37;74.19
30516;BME280;17297;54.022;10.760;2023-10-31T03:31:09;99182.59;;;14.38;74.28
30516;BME280;17297;54.022;10.760;2023-10-31T03:33:35;99176.13;;;14.39;74.29
30516;BME280;17297;54.022;10.760;2023-10-31T03:36:00;99183.19;;;14.40;74.14
30516;BME280;17297;54.022;10.760;2023-10-31T03:38:26;99178.56;;;14.40;74.25
30516;BME280;17297;54.022;10.760;2023-10-31T03:40:51;99178.56;;;14.40;74.14
30516;BME280;17297;54.022;10.760;2023-10-31T03:43:17;99172.34;;;14.40;74.21
30516;BME280;17297;54.022;10.760;2023-10-31T03:45:42;99164.25;;;14.40;74.24
30516;BME280;17297;54.022;10.760;2023-10-31T03:48:07;99164.25;;;14.40;74.17
30516;BME280;17297;54.022;10.760;2023-10-31T03:50:34;99158.84;;;14.40;74.21
30516;BME280;17297;54.022;10.760;2023-10-31T03:52:59;99155.84;;;14.41;74.39
30516;BME280;17297;54.022;10.760;2023-10-31T03:55:24;99159.13;;;14.43;74.42
30516;BME280;17297;54.022;10.760;2023-10-31T03:57:51;99151.00;;;14.43;74.36
30516;BME280;17297;54.022;10.760;2023-10-31T04:00:17;99160.75;;;14.44;74.24
30516;BME280;17297;54.022;10.760;2023-10-31T04:02:44;99158.63;;;14.46;74.37
30516;BME280;17297;54.022;10.760;2023-10-31T04:05:09;99145.91;;;14.47;74.36
30516;BME280;17297;54.022;10.760;2023-10-31T04:07:34;99140.22;;;14.48;74.40
30516;BME280;17297;54.022;10.760;2023-10-31T04:10:00;99148.69;;;14.52;74.33
30516;BME280;17297;54.022;10.760;2023-10-31T04:12:26;99137.88;;;14.52;74.42
30516;BME280;17297;54.022;10.760;2023-10-31T04:14:51;99136.50;;;14.54;74.48
30516;BME280;17297;54.022;10.760;2023-10-31T04:17:16;99137.34;;;14.55;74.41
30516;BME280;17297;54.022;10.760;2023-10-31T04:19:42;99134.38;;;14.57;74.43
30516;BME280;17297;54.022;10.760;2023-10-31T04:22:07;99137.66;;;14.59;74.43
30516;BME280;17297;54.022;10.760;2023-10-31T04:24:32;99130.59;;;14.58;74.39
30516;BME280;17297;54.022;10.760;2023-10-31T04:26:58;99124.38;;;14.57;74.38
30516;BME280;17297;54.022;10.760;2023-10-31T04:29:23;99123.31;;;14.58;74.44
30516;BME280;17297;54.022;10.760;2023-10-31T04:31:48;99111.66;;;14.58;74.39
30516;BME280;17297;54.022;10.760;2023-10-31T04:34:14;99113.31;;;14.59;74.42
30516;BME280;17297;54.022;10.760;2023-10-31T04:36:40;99118.44;;;14.60;74.47
30516;BME280;17297;54.022;10.760;2023-10-31T04:39:05;99111.41;;;14.59;74.45
30516;BME280;17297;54.022;10.760;2023-10-31T04:41:31;99111.13;;;14.61;74.42
30516;BME280;17297;54.022;10.760;2023-10-31T04:43:56;99109.25;;;14.61;74.67
30516;BME280;17297;54.022;10.760;2023-10-31T04:46:22;99116.31;;;14.62;74.47
30516;BME280;17297;54.022;10.760;2023-10-31T04:48:47;99103.59;;;14.63;74.54
30516;BME280;17297;54.022;10.760;2023-10-31T04:51:12;99104.16;;;14.65;74.59
30516;BME280;17297;54.022;10.760;2023-10-31T04:53:38;99099.53;;;14.65;74.65
30516;BME280;17297;54.022;10.760;2023-10-31T04:56:04;99099.53;;;14.65;74.56
30516;BME280;17297;54.022;10.760;2023-10-31T04:58:29;99094.69;;;14.67;74.65
30516;BME280;17297;54.022;10.760;2023-10-31T05:00:54;99091.72;;;14.69;74.68
30516;BME280;17297;54.022;10.760;2023-10-31T05:03:20;99085.22;;;14.70;74.66
30516;BME280;17297;54.022;10.760;2023-10-31T05:05:45;99088.50;;;14.72;74.71
30516;BME280;17297;54.022;10.760;2023-10-31T05:08:11;99088.22;;;14.73;74.72
30516;BME280;17297;54.022;10.760;2023-10-31T05:10:36;99085.25;;;14.75;74.70
30516;BME280;17297;54.022;10.760;2023-10-31T05:13:01;99082.28;;;14.76;74.72
30516;BME280;17297;54.022;10.760;2023-10-31T05:15:30;99070.41;;;14.77;74.83
30516;BME280;17297;54.022;10.760;2023-10-31T05:17:55;99066.34;;;14.80;74.92
30516;BME280;17297;54.022;10.760;2023-10-31T05:20:21;99069.06;;;14.80;74.74
30516;BME280;17297;54.022;10.760;2023-10-31T05:22:46;99071.50;;;14.82;74.91
30516;BME280;17297;54.022;10.760;2023-10-31T05:25:12;99055.00;;;14.83;74.89
30516;BME280;17297;54.022;10.760;2023-10-31T05:27:38;99059.06;;;14.86;74.81
30516;BME280;17297;54.022;10.760;2023-10-31T05:30:04;99050.94;;;14.86;74.85
30516;BME280;17297;54.022;10.760;2023-10-31T05:32:30;99054.22;;;14.88;74.89
30516;BME280;17297;54.022;10.760;2023-10-31T05:34:55;99059.09;;;14.91;74.82
30516;BME280;17297;54.022;10.760;2023-10-31T05:37:21;99054.50;;;14.91;74.94
30516;BME280;17297;54.022;10.760;2023-10-31T05:39:47;99055.31;;;14.92;74.91
30516;BME280;17297;54.022;10.760;2023-10-31T05:42:12;99054.25;;;14.93;74.87
30516;BME280;17297;54.022;10.760;2023-10-31T05:44:38;99047.75;;;14.94;74.98
30516;BME280;17297;54.022;10.760;2023-10-31T05:47:04;99044.78;;;14.95;74.99
30516;BME280;17297;54.022;10.760;2023-10-31T05:49:30;99045.59;;;14.96;74.93
30516;BME280;17297;54.022;10.760;2023-10-31T05:51:55;99039.91;;;14.97;74.97
30516;BME280;17297;54.022;10.760;2023-10-31T05:54:21;99043.44;;;14.98;74.90
30516;BME280;17297;54.022;10.760;2023-10-31T05:56:46;99042.38;;;14.99;75.18
30516;BME280;17297;54.022;10.760;2023-10-31T05:59:12;99042.91;;;15.01;75.03
30516;BME280;17297;54.022;10.760;2023-10-31T06:01:37;99045.59;;;15.01;75.16
30516;BME280;17297;54.022;10.760;2023-10-31T06:04:03;99048.88;;;15.03;74.79
30516;BME280;17297;54.022;10.760;2023-10-31T06:06:32;99046.97;;;15.04;75.07
30516;BME280;17297;54.022;10.760;2023-10-31T06:08:57;99049.44;;;15.05;75.03
30516;BME280;17297;54.022;10.760;2023-10-31T06:11:23;99052.97;;;15.06;75.04
30516;BME280;17297;54.022;10.760;2023-10-31T06:13:48;99048.34;;;15.06;75.10
30516;BME280;17297;54.022;10.760;2023-10-31T06:16:13;99048.91;;;15.08;75.09
30516;BME280;17297;54.022;10.760;2023-10-31T06:18:39;99039.69;;;15.09;74.95
30516;BME280;17297;54.022;10.760;2023-10-31T06:21:05;99052.16;;;15.10;75.19
30516;BME280;17297;54.022;10.760;2023-10-31T06:23:31;99048.38;;;15.11;75.17
30516;BME280;17297;54.022;10.760;2023-10-31T06:25:56;99050.81;;;15.13;75.21
30516;BME280;17297;54.022;10.760;2023-10-31T06:28:23;99040.25;;;15.11;75.16
30516;BME280;17297;54.022;10.760;2023-10-31T06:30:48;99051.63;;;15.13;75.15
30516;BME280;17297;54.022;10.760;2023-10-31T06:33:13;99052.44;;;15.14;75.22
30516;BME280;17297;54.022;10.760;2023-10-31T06:35:39;99045.16;;;15.14;75.14
30516;BME280;17297;54.022;10.760;2023-10-31T06:38:04;99044.06;;;15.15;75.10
30516;BME280;17297;54.022;10.760;2023-10-31T06:40:29;99044.88;;;15.16;75.20
30516;BME280;17297;54.022;10.760;2023-10-31T06:42:55;99049.19;;;15.17;75.27
30516;BME280;17297;54.022;10.760;2023-10-31T06:45:20;99052.75;;;15.17;75.20
30516;BME280;17297;54.022;10.760;2023-10-31T06:47:46;99052.47;;;15.19;75.31
30516;BME280;17297;54.022;10.760;2023-10-31T06:50:11;99051.38;;;15.20;75.23
30516;BME280;17297;54.022;10.760;2023-10-31T06:52:36;99050.31;;;15.21;75.23
30516;BME280;17297;54.022;10.760;2023-10-31T06:55:02;99057.34;;;15.22;75.33
30516;BME280;17297;54.022;10.760;2023-10-31T06:57:27;99064.16;;;15.24;75.31
30516;BME280;17297;54.022;10.760;2023-10-31T06:59:53;99055.22;;;15.24;75.32
30516;BME280;17297;54.022;10.760;2023-10-31T07:02:18;99053.31;;;15.24;75.39
30516;BME280;17297;54.022;10.760;2023-10-31T07:04:44;99051.16;;;15.27;75.29
30516;BME280;17297;54.022;10.760;2023-10-31T07:07:09;99058.19;;;15.28;75.30
30516;BME280;17297;54.022;10.760;2023-10-31T07:09:34;99051.69;;;15.29;75.43
30516;BME280;17297;54.022;10.760;2023-10-31T07:12:00;99052.50;;;15.29;75.25
30516;BME280;17297;54.022;10.760;2023-10-31T07:14:25;99053.06;;;15.31;75.29
30516;BME280;17297;54.022;10.760;2023-10-31T07:16:50;99053.88;;;15.32;75.48
30516;BME280;17297;54.022;10.760;2023-10-31T07:19:16;99054.69;;;15.32;75.35
30516;BME280;17297;54.022;10.760;2023-10-31T07:21:41;99057.16;;;15.34;75.47
30516;BME280;17297;54.022;10.760;2023-10-31T07:24:07;99051.44;;;15.35;75.40
30516;BME280;17297;54.022;10.760;2023-10-31T07:26:34;99046.88;;;15.36;75.50
30516;BME280;17297;54.022;10.760;2023-10-31T07:29:00;99052.00;;;15.37;75.37
30516;BME280;17297;54.022;10.760;2023-10-31T07:31:25;99047.41;;;15.38;75.55
30516;BME280;17297;54.022;10.760;2023-10-31T07:33:50;99043.06;;;15.42;75.55
30516;BME280;17297;54.022;10.760;2023-10-31T07:36:16;99044.72;;;15.43;75.50
30516;BME280;17297;54.022;10.760;2023-10-31T07:38:41;99048.22;;;15.43;75.58
30516;BME280;17297;54.022;10.760;2023-10-31T07:41:07;99045.25;;;15.45;75.41
30516;BME280;17297;54.022;10.760;2023-10-31T07:43:32;99052.31;;;15.46;75.50
30516;BME280;17297;54.022;10.760;2023-10-31T07:45:57;99053.94;;;15.47;75.42
30516;BME280;17297;54.022;10.760;2023-10-31T07:48:23;99058.81;;;15.50;75.65
30516;BME280;17297;54.022;10.760;2023-10-31T07:50:48;99049.88;;;15.50;75.55
30516;BME280;17297;54.022;10.760;2023-10-31T07:53:13;99043.38;;;15.51;75.49
30516;BME280;17297;54.022;10.760;2023-10-31T07:55:39;99044.47;;;15.50;75.42
30516;BME280;17297;54.022;10.760;2023-10-31T07:58:04;99032.53;;;15.51;75.63
30516;BME280;17297;54.022;10.760;2023-10-31T08:00:29;99047.72;;;15.52;75.50
30516;BME280;17297;54.022;10.760;2023-10-31T08:02:56;99038.50;;;15.53;75.50
30516;BME280;17297;54.022;10.760;2023-10-31T08:05:21;99038.50;;;15.53;75.55
30516;BME280;17297;54.022;10.760;2023-10-31T08:07:47;99033.91;;;15.53;75.67
30516;BME280;17297;54.022;10.760;2023-10-31T08:10:13;99033.66;;;15.55;75.59
30516;BME280;17297;54.022;10.760;2023-10-31T08:12:38;99030.66;;;15.56;75.44
30516;BME280;17297;54.022;10.760;2023-10-31T08:15:04;99027.69;;;15.58;75.82
30516;BME280;17297;54.022;10.760;2023-10-31T08:17:29;99024.69;;;15.59;75.79
30516;BME280;17297;54.022;10.760;2023-10-31T08:19:55;99027.97;;;15.61;75.85
30516;BME280;17297;54.022;10.760;2023-10-31T08:22:20;99026.63;;;15.64;75.83
30516;BME280;17297;54.022;10.760;2023-10-31T08:24:46;99029.06;;;15.65;75.74
30516;BME280;17297;54.022;10.760;2023-10-31T08:27:11;99031.53;;;15.67;75.75
30516;BME280;17297;54.022;10.760;2023-10-31T08:29:37;99028.53;;;15.68;75.81
30516;BME280;17297;54.022;10.760;2023-10-31T08:32:03;99024.75;;;15.69;75.87
30516;BME280;17297;54.022;10.760;2023-10-31T08:34:29;99029.09;;;15.70;75.88
30516;BME280;17297;54.022;10.760;2023-10-31T08:36:54;99024.22;;;15.73;75.89
30516;BME280;17297;54.022;10.760;2023-10-31T08:39:21;99025.56;;;15.75;75.87
30516;BME280;17297;54.022;10.760;2023-10-31T08:41:57;99025.56;;;15.75;76.02
30516;BME280;17297;54.022;10.760;2023-10-31T08:44:23;99031.56;;;15.77;75.79
30516;BME280;17297;54.022;10.760;2023-10-31T08:46:49;99035.31;;;15.76;75.85
30516;BME280;17297;54.022;10.760;2023-10-31T08:49:16;99033.44;;;15.77;75.81
30516;BME280;17297;54.022;10.760;2023-10-31T08:51:42;99034.50;;;15.76;75.68
30516;BME280;17297;54.022;10.760;2023-10-31T08:54:07;99034.25;;;15.77;75.75
30516;BME280;17297;54.022;10.760;2023-10-31T08:56:34;99030.75;;;15.77;75.88
30516;BME280;17297;54.022;10.760;2023-10-31T08:59:00;99041.59;;;15.77;75.92
30516;BME280;17297;54.022;10.760;2023-10-31T09:01:26;99036.16;;;15.77;75.76
30516;BME280;17297;54.022;10.760;2023-10-31T09:03:51;99037.78;;;15.78;76.04
30516;BME280;17297;54.022;10.760;2023-10-31T09:06:17;99039.69;;;15.77;75.78
30516;BME280;17297;54.022;10.760;2023-10-31T09:08:43;99040.50;;;15.78;75.92
30516;BME280;17297;54.022;10.760;2023-10-31T09:11:08;99041.31;;;15.78;75.86
30516;BME280;17297;54.022;10.760;2023-10-31T09:13:33;99036.69;;;15.79;75.68
30516;BME280;17297;54.022;10.760;2023-10-31T09:15:59;99044.81;;;15.79;75.83
30516;BME280;17297;54.022;10.760;2023-10-31T09:18:25;99050.00;;;15.80;75.95
30516;BME280;17297;54.022;10.760;2023-10-31T09:20:51;99057.31;;;15.80;75.86
30516;BME280;17297;54.022;10.760;2023-10-31T09:23:17;99053.50;;;15.81;76.00
30516;BME280;17297;54.022;10.760;2023-10-31T09:25:43;99047.81;;;15.82;75.81
30516;BME280;17297;54.022;10.760;2023-10-31T09:28:08;99052.16;;;15.83;75.93
30516;BME280;17297;54.022;10.760;2023-10-31T09:30:34;99045.66;;;15.84;76.05
30516;BME280;17297;54.022;10.760;2023-10-31T09:33:00;99044.31;;;15.87;76.11
30516;BME280;17297;54.022;10.760;2023-10-31T09:35:25;99047.00;;;15.87;76.08
30516;BME280;17297;54.022;10.760;2023-10-31T09:37:51;99044.84;;;15.89;76.12
30516;BME280;17297;54.022;10.760;2023-10-31T09:40:17;99049.19;;;15.90;75.92
30516;BME280;17297;54.022;10.760;2023-10-31T09:42:44;99063.31;;;15.92;76.02
30516;BME280;17297;54.022;10.760;2023-10-31T09:45:10;99065.72;;;15.93;76.08
30516;BME280;17297;54.022;10.760;2023-10-31T09:47:36;99058.69;;;15.92;76.20
30516;BME280;17297;54.022;10.760;2023-10-31T09:50:01;99060.31;;;15.93;76.03
30516;BME280;17297;54.022;10.760;2023-10-31T09:52:26;99070.06;;;15.94;76.08
30516;BME280;17297;54.022;10.760;2023-10-31T09:54:53;99071.44;;;15.97;76.21
30516;BME280;17297;54.022;10.760;2023-10-31T09:57:18;99073.59;;;16.00;76.19
30516;BME280;17297;54.022;10.760;2023-10-31T09:59:44;99077.13;;;16.01;76.23
30516;BME280;17297;54.022;10.760;2023-10-31T10:02:10;99070.63;;;16.02;76.04
30516;BME280;17297;54.022;10.760;2023-10-31T10:04:36;99078.78;;;16.02;76.00
30516;BME280;17297;54.022;10.760;2023-10-31T10:07:03;99083.63;;;16.00;75.97
30516;BME280;17297;54.022;10.760;2023-10-31T10:09:29;99086.34;;;16.00;75.85
30516;BME280;17297;54.022;10.760;2023-10-31T10:11:58;99099.09;;;15.99;76.15
30516;BME280;17297;54.022;10.760;2023-10-31T10:14:24;99096.13;;;15.96;76.07
30516;BME280;17297;54.022;10.760;2023-10-31T10:16:50;99104.25;;;15.96;76.22
30516;BME280;17297;54.022;10.760;2023-10-31T10:19:20;99112.63;;;15.94;76.05
30516;BME280;17297;54.022;10.760;2023-10-31T10:21:51;99111.03;;;15.93;76.15
30516;BME280;17297;54.022;10.760;2023-10-31T10:24:18;99110.22;;;15.92;75.87
30516;BME280;17297;54.022;10.760;2023-10-31T10:26:44;99116.69;;;15.91;75.87
30516;BME280;17297;54.022;10.760;2023-10-31T10:29:09;99114.28;;;15.90;75.86
30516;BME280;17297;54.022;10.760;2023-10-31T10:31:35;99125.38;;;15.88;75.80
30516;BME280;17297;54.022;10.760;2023-10-31T10:34:00;99132.69;;;15.88;75.80
30516;BME280;17297;54.022;10.760;2023-10-31T10:36:27;99147.34;;;15.87;75.80
30516;BME280;17297;54.022;10.760;2023-10-31T10:38:56;99145.97;;;15.84;75.78
30516;BME280;17297;54.022;10.760;2023-10-31T10:41:25;99158.16;;;15.82;75.69
30516;BME280;17297;54.022;10.760;2023-10-31T10:44:03;99164.09;;;15.79;75.72
30516;BME280;17297;54.022;10.760;2023-10-31T10:46:35;99166.81;;;15.74;75.46
30516;BME280;17297;54.022;10.760;2023-10-31T10:49:05;99183.06;;;15.68;75.34
30516;BME280;17297;54.022;10.760;2023-10-31T10:51:55;99199.25;;;15.58;75.15
30516;BME280;17297;54.022;10.760;2023-10-31T10:54:33;99219.22;;;15.47;75.02
30516;BME280;17297;54.022;10.760;2023-10-31T10:57:16;99228.91;;;15.38;75.06
30516;BME280;17297;54.022;10.760;2023-10-31T10:59:48;99232.38;;;15.28;74.67
30516;BME280;17297;54.022;10.760;2023-10-31T11:02:18;99245.88;;;15.18;74.67
30516;BME280;17297;54.022;10.760;2023-10-31T11:04:44;99256.34;;;15.09;74.48
30516;BME280;17297;54.022;10.760;2023-10-31T11:07:10;99274.97;;;15.00;74.64
30516;BME280;17297;54.022;10.760;2023-10-31T11:09:37;99269.75;;;14.94;74.55
30516;BME280;17297;54.022;10.760;2023-10-31T11:12:03;99285.41;;;14.87;74.63
30516;BME280;17297;54.022;10.760;2023-10-31T11:14:30;99299.16;;;14.80;74.61
30516;BME280;17297;54.022;10.760;2023-10-31T11:17:00;99308.28;;;14.74;74.52
30516;BME280;17297;54.022;10.760;2023-10-31T11:19:28;99313.41;;;14.70;74.42
30516;BME280;17297;54.022;10.760;2023-10-31T11:21:54;99325.25;;;14.64;74.37
30516;BME280;17297;54.022;10.760;2023-10-31T11:24:23;99332.72;;;14.57;74.25
30516;BME280;17297;54.022;10.760;2023-10-31T11:26:53;99339.97;;;14.51;74.25
30516;BME280;17297;54.022;10.760;2023-10-31T11:29:19;99349.91;;;14.46;74.03
30516;BME280;17297;54.022;10.760;2023-10-31T11:31:44;99355.50;;;14.39;74.27
30516;BME280;17297;54.022;10.760;2023-10-31T11:34:10;99372.97;;;14.31;74.03
30516;BME280;17297;54.022;10.760;2023-10-31T11:36:36;99394.28;;;14.28;74.00
30516;BME280;17297;54.022;10.760;2023-10-31T11:39:15;99393.41;;;14.22;74.01
30516;BME280;17297;54.022;10.760;2023-10-31T11:41:49;99397.09;;;14.16;74.00
30516;BME280;17297;54.022;10.760;2023-10-31T11:44:16;99409.50;;;14.12;73.89
30516;BME280;17297;54.022;10.760;2023-10-31T11:46:42;99422.13;;;14.06;73.85
30516;BME280;17297;54.022;10.760;2023-10-31T11:49:07;99432.84;;;14.01;73.70
30516;BME280;17297;54.022;10.760;2023-10-31T11:51:33;99430.31;;;13.95;73.56
30516;BME280;17297;54.022;10.760;2023-10-31T11:53:59;99446.47;;;13.90;73.71
30516;BME280;17297;54.022;10.760;2023-10-31T11:56:26;99451.78;;;13.84;73.61
30516;BME280;17297;54.022;10.760;2023-10-31T11:58:57;99459.81;;;13.79;73.67
30516;BME280;17297;54.022;10.760;2023-10-31T12:01:22;99473.81;;;13.76;73.47
30516;BME280;17297;54.022;10.760;2023-10-31T12:03:47;99477.25;;;13.72;73.45
30516;BME280;17297;54.022;10.760;2023-10-31T12:06:14;99487.97;;;13.67;73.37
30516;BME280;17297;54.022;10.760;2023-10-31T12:08:41;99486.56;;;13.64;73.58
30516;BME280;17297;54.022;10.760;2023-10-31T12:11:09;99495.41;;;13.59;73.33
30516;BME280;17297;54.022;10.760;2023-10-31T12:13:42;99507.78;;;13.55;73.48
30516;BME280;17297;54.022;10.760;2023-10-31T12:16:10;99512.59;;;13.53;73.38
30516;BME280;17297;54.022;10.760;2023-10-31T12:18:38;99527.19;;;13.52;73.37
30516;BME280;17297;54.022;10.760;2023-10-31T12:21:06;99532.81;;;13.51;73.34
30516;BME280;17297;54.022;10.760;2023-10-31T12:23:33;99532.22;;;13.49;73.41
30516;BME280;17297;54.022;10.760;2023-10-31T12:25:58;99538.47;;;13.49;73.51
30516;BME280;17297;54.022;10.760;2023-10-31T12:28:25;99545.97;;;13.47;73.37
30516;BME280;17297;54.022;10.760;2023-10-31T12:30:53;99548.69;;;13.47;73.51
30516;BME280;17297;54.022;10.760;2023-10-31T12:33:21;99552.47;;;13.46;73.41
30516;BME280;17297;54.022;10.760;2023-10-31T12:35:51;99562.41;;;13.46;73.40
30516;BME280;17297;54.022;10.760;2023-10-31T12:38:17;99585.09;;;13.45;73.38
30516;BME280;17297;54.022;10.760;2023-10-31T12:40:44;99592.13;;;13.46;73.40
30516;BME280;17297;54.022;10.760;2023-10-31T12:43:10;99593.19;;;13.45;73.34
30516;BME280;17297;54.022;10.760;2023-10-31T12:45:36;99603.78;;;13.46;73.50